Time;durP1;ratioP1;P1;durP2;ratioP2;P2;SDS_P1;SDS_P2;PMS_P1;PMS_P2;Temp;Humidity;BMP_temperature;BMP_pressure;BME280_temperature;BME280_humidity;BME280_pressure;Samples;Min_cycle;Max_cycle;Signal;HPM_P1;HPM_P2
2023/08/05 00:04:38;;;;;;;13.18;4.90;;;14.80;99.90;;;;;;10440657;28;20203;-88
2023/08/05 00:09:41;;;;;;;5.82;5.15;;;14.80;99.90;;;;;;10457855;28;20245;-88
2023/08/05 00:14:43;;;;;;;10.25;5.15;;;14.80;99.90;;;;;;10440021;28;20207;-88
2023/08/05 00:19:46;;;;;;;8.32;5.70;;;14.70;99.90;;;;;;10457261;28;20674;-88
2023/08/05 00:24:49;;;;;;;9.40;5.47;;;14.70;99.90;;;;;;10439970;28;20229;-88
2023/08/05 00:29:51;;;;;;;6.00;4.20;;;14.70;99.90;;;;;;10456332;28;20574;-88
2023/08/05 00:34:54;;;;;;;10.63;5.15;;;14.70;99.90;;;;;;10457009;28;20199;-88
2023/08/05 00:39:59;;;;;;;8.52;5.47;;;14.70;99.90;;;;;;10438165;28;20230;-88
2023/08/05 00:45:01;;;;;;;6.40;3.83;;;14.70;99.90;;;;;;10438751;28;20207;-88
2023/08/05 00:50:05;;;;;;;8.18;4.53;;;14.60;99.90;;;;;;10437814;28;20272;-88
2023/08/05 00:55:08;;;;;;;11.05;5.15;;;14.70;99.90;;;;;;10454503;28;20198;-88
2023/08/05 01:00:10;;;;;;;7.13;4.43;;;14.70;99.90;;;;;;10438360;28;20234;-88
2023/08/05 01:05:13;;;;;;;5.28;4.63;;;14.60;99.90;;;;;;10455962;28;20561;-88
2023/08/05 01:10:16;;;;;;;10.27;5.80;;;14.60;99.90;;;;;;10437270;28;20590;-88
2023/08/05 01:15:19;;;;;;;8.73;4.85;;;14.50;99.90;;;;;;10455505;28;20607;-88
2023/08/05 01:20:30;;;;;;;11.65;4.20;;;14.50;99.90;;;;;;10455328;28;20202;-88
2023/08/05 01:25:35;;;;;;;7.72;6.05;;;14.60;99.90;;;;;;10437477;28;20280;-88
2023/08/05 01:30:37;;;;;;;5.93;4.40;;;14.60;99.90;;;;;;10436913;28;20226;-88
2023/08/05 01:35:46;;;;;;;9.80;5.57;;;14.70;99.90;;;;;;10455380;28;20203;-87
2023/08/05 01:40:50;;;;;;;9.70;5.57;;;14.70;99.90;;;;;;10454795;28;20284;-88
2023/08/05 01:45:53;;;;;;;7.97;4.78;;;14.70;99.90;;;;;;10436101;28;20256;-88
2023/08/05 01:50:55;;;;;;;12.05;5.25;;;14.70;99.90;;;;;;10436116;28;20673;-88
2023/08/05 01:55:58;;;;;;;8.90;5.28;;;14.70;99.90;;;;;;10454134;28;20759;-88
2023/08/05 02:01:00;;;;;;;5.32;4.82;;;14.70;99.90;;;;;;10452436;28;20619;-87
2023/08/05 02:06:03;;;;;;;15.68;5.80;;;14.70;99.90;;;;;;10453750;28;20191;-88
2023/08/05 02:11:05;;;;;;;3.53;3.22;;;14.60;99.90;;;;;;10438869;28;20202;-88
2023/08/05 02:16:08;;;;;;;4.85;4.40;;;14.60;99.90;;;;;;10443819;28;20616;-88
2023/08/05 02:21:10;;;;;;;6.35;5.25;;;14.60;99.90;;;;;;10443894;28;20207;-87
2023/08/05 02:26:13;;;;;;;7.25;4.50;;;14.60;99.90;;;;;;10444169;28;20190;-87
2023/08/05 02:31:16;;;;;;;5.25;3.75;;;14.60;99.90;;;;;;10443492;28;20195;-87
2023/08/05 02:36:18;;;;;;;4.82;4.07;;;14.70;99.90;;;;;;10443402;28;20207;-87
2023/08/05 02:41:21;;;;;;;5.13;4.63;;;14.80;99.90;;;;;;10460868;28;20231;-88
2023/08/05 02:46:23;;;;;;;6.43;5.03;;;14.60;99.90;;;;;;10442794;28;20225;-88
2023/08/05 02:51:26;;;;;;;5.50;3.83;;;14.60;99.90;;;;;;10460846;28;20199;-88
2023/08/05 02:56:29;;;;;;;5.82;3.88;;;14.50;99.90;;;;;;10442936;28;20206;-88
2023/08/05 03:01:31;;;;;;;6.45;5.18;;;14.60;99.90;;;;;;10442161;28;20203;-88
2023/08/05 03:06:34;;;;;;;8.50;5.18;;;14.50;99.90;;;;;;10460465;28;20219;-88
2023/08/05 03:11:36;;;;;;;5.22;3.97;;;14.50;99.90;;;;;;10460622;28;20604;-88
2023/08/05 03:16:41;;;;;;;5.15;4.70;;;14.50;99.90;;;;;;10461104;28;20195;-88
2023/08/05 03:21:50;;;;;;;6.25;5.50;;;14.50;99.90;;;;;;10443491;28;20264;-87
2023/08/05 03:26:54;;;;;;;5.10;3.72;;;14.40;99.90;;;;;;10442030;28;20219;-88
2023/08/05 03:31:57;;;;;;;5.72;5.13;;;14.40;99.90;;;;;;10441442;28;20203;-88
2023/08/05 03:37:01;;;;;;;3.65;3.22;;;14.40;99.90;;;;;;10459185;28;20257;-88
2023/08/05 03:42:04;;;;;;;7.07;4.22;;;14.50;99.90;;;;;;10459155;28;20230;-87
2023/08/05 03:47:07;;;;;;;5.35;4.85;;;14.60;99.90;;;;;;10458784;28;20578;-87
2023/08/05 03:52:09;;;;;;;6.38;4.45;;;14.60;99.90;;;;;;10458728;28;20585;-88
2023/08/05 03:57:12;;;;;;;5.75;3.42;;;14.60;99.90;;;;;;10440241;28;20256;-88
2023/08/05 04:02:16;;;;;;;5.57;4.45;;;14.60;99.90;;;;;;10424072;28;20257;-87
2023/08/05 04:07:19;;;;;;;9.13;5.65;;;14.60;99.90;;;;;;10439377;28;20245;-87
2023/08/05 04:12:22;;;;;;;6.75;6.07;;;14.70;99.90;;;;;;10440382;28;20268;-88
2023/08/05 04:17:25;;;;;;;8.63;5.47;;;14.90;99.90;;;;;;10439993;28;20203;-88
2023/08/05 04:22:27;;;;;;;5.75;4.75;;;15.00;99.90;;;;;;10439510;28;20269;-87
2023/08/05 04:27:30;;;;;;;5.13;4.20;;;15.10;99.90;;;;;;10439346;28;20226;-88
2023/08/05 04:32:32;;;;;;;6.20;5.63;;;15.20;99.90;;;;;;10438933;28;20207;-88
2023/08/05 04:37:35;;;;;;;6.35;5.75;;;15.30;99.90;;;;;;10455871;28;20230;-88
2023/08/05 04:42:38;;;;;;;5.93;5.47;;;15.40;99.90;;;;;;10455774;28;20229;-87
2023/08/05 04:47:41;;;;;;;6.65;6.05;;;15.50;99.90;;;;;;10456331;28;20284;-87
2023/08/05 04:52:45;;;;;;;8.70;6.10;;;15.60;99.90;;;;;;10455747;28;20230;-88
2023/08/05 04:57:55;;;;;;;9.52;7.10;;;15.80;99.90;;;;;;10455872;28;20241;-87
2023/08/05 05:02:57;;;;;;;11.93;6.47;;;15.90;99.90;;;;;;10456084;28;20195;-87
2023/08/05 05:08:00;;;;;;;11.00;7.35;;;16.10;99.90;;;;;;10455407;28;20280;-87
2023/08/05 05:13:03;;;;;;;11.43;8.43;;;16.30;99.90;;;;;;10455246;28;20207;-88
2023/08/05 05:18:05;;;;;;;9.15;7.88;;;16.60;99.90;;;;;;10438127;28;20198;-88
2023/08/05 05:23:08;;;;;;;6.47;5.88;;;16.90;99.90;;;;;;10455514;28;20273;-87
2023/08/05 05:28:10;;;;;;;8.18;7.35;;;17.10;99.90;;;;;;10436926;28;20223;-88
2023/08/05 05:33:13;;;;;;;9.77;7.85;;;17.40;99.90;;;;;;10454616;28;20195;-87
2023/08/05 05:38:15;;;;;;;12.10;7.63;;;17.60;99.90;;;;;;10454726;28;20227;-88
2023/08/05 05:43:18;;;;;;;10.55;6.63;;;17.80;99.90;;;;;;10455116;28;20199;-88
2023/08/05 05:48:20;;;;;;;8.02;6.50;;;18.00;99.90;;;;;;10436178;28;20249;-87
2023/08/05 05:53:23;;;;;;;7.25;6.55;;;18.20;99.90;;;;;;10453753;28;20198;-88
2023/08/05 05:58:27;;;;;;;8.60;7.22;;;18.50;99.90;;;;;;10454513;28;20538;-87
2023/08/05 06:03:33;;;;;;;7.85;7.05;;;18.70;99.90;;;;;;10453958;28;20264;-87
2023/08/05 06:08:36;;;;;;;7.13;2.60;;;18.80;99.90;;;;;;10453104;28;20292;-88
2023/08/05 06:13:39;;;;;;;6.65;5.50;;;18.90;99.90;;;;;;10453419;28;20198;-87
2023/08/05 06:18:41;;;;;;;10.07;9.00;;;18.90;99.90;;;;;;10453453;28;20256;-88
2023/08/05 06:23:44;;;;;;;9.10;7.68;;;19.00;99.90;;;;;;10453606;28;20203;-87
2023/08/05 06:28:46;;;;;;;11.45;8.43;;;19.00;99.90;;;;;;10452837;28;20231;-87
2023/08/05 06:33:49;;;;;;;8.43;6.95;;;19.10;99.90;;;;;;10453587;28;20195;-88
2023/08/05 06:38:51;;;;;;;6.90;4.53;;;19.20;99.90;;;;;;10453248;28;20258;-87
2023/08/05 06:43:54;;;;;;;6.20;5.57;;;19.30;99.90;;;;;;10453252;28;20250;-88
2023/08/05 06:48:57;;;;;;;6.70;5.53;;;19.50;99.90;;;;;;10453067;28;20280;-88
2023/08/05 06:54:01;;;;;;;4.53;3.80;;;19.60;99.90;;;;;;10435049;28;20207;-88
2023/08/05 06:59:04;;;;;;;7.55;6.22;;;19.70;99.90;;;;;;10459319;28;20195;-87
2023/08/05 07:04:06;;;;;;;12.13;6.85;;;19.80;99.90;;;;;;10460797;28;20195;-88
2023/08/05 07:09:10;;;;;;;7.05;6.35;;;19.80;99.90;;;;;;10441950;28;20292;-87
2023/08/05 07:14:12;;;;;;;6.47;5.63;;;19.90;99.90;;;;;;10460252;28;20187;-87
2023/08/05 07:19:15;;;;;;;6.82;5.43;;;20.00;99.90;;;;;;10459824;28;20211;-88
2023/08/05 07:24:18;;;;;;;7.55;5.57;;;20.00;99.90;;;;;;10460062;28;20199;-88
2023/08/05 07:29:21;;;;;;;3.95;3.58;;;20.00;99.90;;;;;;10459912;28;20211;-87
2023/08/05 07:34:26;;;;;;;6.75;5.35;;;20.00;99.90;;;;;;10441351;28;20199;-87
2023/08/05 07:39:33;;;;;;;5.22;4.72;;;20.00;99.90;;;;;;10459017;28;20288;-87
2023/08/05 07:44:36;;;;;;;6.20;3.90;;;19.90;99.90;;;;;;10441530;28;20195;-87
2023/08/05 07:49:40;;;;;;;7.43;4.68;;;19.90;99.90;;;;;;10457909;28;20227;-87
2023/08/05 07:54:42;;;;;;;3.92;3.53;;;19.80;99.90;;;;;;10458700;28;20223;-88
2023/08/05 07:59:45;;;;;;;3.95;3.55;;;19.90;99.90;;;;;;10457575;28;20214;-87
2023/08/05 08:04:49;;;;;;;4.53;3.90;;;19.90;99.90;;;;;;10458167;28;20734;-87
2023/08/05 08:09:51;;;;;;;4.90;3.75;;;19.90;99.90;;;;;;10456581;28;20644;-87
2023/08/05 08:14:54;;;;;;;7.88;3.78;;;19.90;99.90;;;;;;10439661;28;20265;-87
2023/08/05 08:19:56;;;;;;;4.38;3.80;;;19.90;99.90;;;;;;10457188;28;20241;-87
2023/08/05 08:24:59;;;;;;;3.45;3.15;;;19.90;99.90;;;;;;10457403;28;20222;-87
2023/08/05 08:30:02;;;;;;;6.38;4.20;;;19.90;99.90;;;;;;10439195;28;20591;-87
2023/08/05 08:35:05;;;;;;;5.40;4.90;;;19.90;99.90;;;;;;10457135;28;20199;-88
2023/08/05 08:40:08;;;;;;;4.35;3.85;;;19.90;99.90;;;;;;10438551;28;20610;-88
2023/08/05 08:45:15;;;;;;;5.38;4.22;;;20.10;99.90;;;;;;10455671;28;20248;-87
2023/08/05 08:50:18;;;;;;;3.70;3.22;;;20.20;99.90;;;;;;10438881;28;20218;-87
2023/08/05 08:55:21;;;;;;;5.03;3.88;;;20.30;99.90;;;;;;10438748;28;20252;-87
2023/08/05 09:00:26;;;;;;;3.65;3.17;;;20.40;99.90;;;;;;10455824;28;20257;-87
2023/08/05 09:05:34;;;;;;;3.47;2.95;;;20.50;99.90;;;;;;10454816;28;20207;-88
2023/08/05 09:10:40;;;;;;;3.60;2.90;;;20.60;99.90;;;;;;10455565;28;20770;-87
2023/08/05 09:15:43;;;;;;;4.32;3.20;;;20.70;99.00;;;;;;10454511;28;20191;-88
2023/08/05 09:20:49;;;;;;;2.25;2.13;;;21.00;99.30;;;;;;10455923;28;20261;-88
2023/08/05 09:25:51;;;;;;;4.95;3.33;;;21.30;98.20;;;;;;10455471;28;20256;-88
2023/08/05 09:31:14;;;;;;;4.20;3.33;;;21.40;98.00;;;;;;10436268;28;20227;-88
2023/08/05 09:36:25;;;;;;;4.82;3.80;;;21.60;97.20;;;;;;10454769;28;20199;-88
2023/08/05 09:41:32;;;;;;;3.22;2.60;;;21.60;99.90;;;;;;10454290;28;20235;-88
2023/08/05 09:46:43;;;;;;;6.55;3.55;;;21.80;97.00;;;;;;10454582;28;20673;-88
2023/08/05 09:51:46;;;;;;;6.03;3.05;;;21.80;93.30;;;;;;10453732;28;20281;-87
2023/08/05 09:56:49;;;;;;;3.97;2.88;;;22.00;95.70;;;;;;10453808;28;20202;-87
2023/08/05 10:01:52;;;;;;;4.13;2.47;;;21.90;93.60;;;;;;10436804;28;20202;-88
2023/08/05 10:06:56;;;;;;;8.35;2.40;;;21.90;92.80;;;;;;10454503;28;20535;-87
2023/08/05 10:11:59;;;;;;;2.10;2.00;;;21.90;91.80;;;;;;10436379;28;20709;-87
2023/08/05 10:17:04;;;;;;;4.47;3.25;;;22.00;91.80;;;;;;10453569;28;20191;-88
2023/08/05 10:22:10;;;;;;;2.65;2.45;;;22.00;92.40;;;;;;10435370;28;20202;-87
2023/08/05 10:27:13;;;;;;;5.80;3.00;;;22.10;93.60;;;;;;10452639;28;20203;-88
2023/08/05 10:32:15;;;;;;;2.80;2.00;;;22.10;94.10;;;;;;10456816;28;20226;-87
2023/08/05 10:37:18;;;;;;;4.28;2.45;;;22.00;91.60;;;;;;10461373;28;20688;-88
2023/08/05 10:42:32;;;;;;;6.43;2.95;;;21.90;91.70;;;;;;10460797;28;20207;-87
2023/08/05 10:47:34;;;;;;;3.67;2.60;;;21.80;92.40;;;;;;10443522;28;20211;-87
2023/08/05 10:52:38;;;;;;;3.63;2.88;;;21.70;93.30;;;;;;10443518;28;20254;-88
2023/08/05 10:57:41;;;;;;;2.70;2.30;;;21.70;93.10;;;;;;10461072;28;20195;-87
2023/08/05 11:02:43;;;;;;;3.28;2.90;;;21.70;94.40;;;;;;10460478;28;20234;-88
2023/08/05 11:07:47;;;;;;;2.90;2.40;;;21.60;96.70;;;;;;10460616;28;20207;-88
2023/08/05 11:12:54;;;;;;;4.40;2.53;;;21.40;97.00;;;;;;10460482;28;20288;-87
2023/08/05 11:17:56;;;;;;;4.07;2.75;;;21.30;97.00;;;;;;10442796;28;20211;-88
2023/08/05 11:23:00;;;;;;;3.33;2.80;;;21.30;97.30;;;;;;10460461;28;20241;-87
2023/08/05 11:28:05;;;;;;;2.40;2.20;;;21.40;99.90;;;;;;10442202;28;20199;-88
2023/08/05 11:33:08;;;;;;;3.97;3.00;;;21.20;98.40;;;;;;10441726;28;20284;-88
2023/08/05 11:38:11;;;;;;;3.83;3.20;;;21.20;98.50;;;;;;10459116;28;20218;-87
2023/08/05 11:43:15;;;;;;;2.88;2.50;;;21.00;99.30;;;;;;10458003;28;20203;-87
2023/08/05 11:48:18;;;;;;;6.20;2.58;;;20.90;99.50;;;;;;10459265;28;20248;-88
2023/08/05 11:53:21;;;;;;;6.38;3.13;;;20.80;99.90;;;;;;10459614;28;20203;-87
2023/08/05 11:58:23;;;;;;;4.75;2.63;;;20.80;99.90;;;;;;10459283;28;20237;-88
2023/08/05 12:03:32;;;;;;;3.10;2.80;;;20.80;99.90;;;;;;10458872;28;20203;-87
2023/08/05 12:08:42;;;;;;;4.07;3.72;;;20.80;97.90;;;;;;10440495;28;20199;-87
2023/08/05 12:13:44;;;;;;;10.43;3.00;;;20.90;98.00;;;;;;10439804;28;20254;-87
2023/08/05 12:18:48;;;;;;;6.13;3.25;;;20.80;98.60;;;;;;10457370;28;20551;-87
2023/08/05 12:23:50;;;;;;;5.38;3.90;;;20.80;98.50;;;;;;10458008;28;20195;-87
2023/08/05 12:28:53;;;;;;;5.93;5.32;;;20.80;99.90;;;;;;10457806;28;20211;-87
2023/08/05 12:33:55;;;;;;;3.72;3.05;;;20.70;99.90;;;;;;10457786;28;20199;-88
2023/08/05 12:38:58;;;;;;;6.50;4.40;;;20.70;99.90;;;;;;10456059;28;20591;-87
2023/08/05 12:44:01;;;;;;;6.47;4.70;;;20.60;99.90;;;;;;10438881;28;20266;-87
2023/08/05 12:49:03;;;;;;;4.50;3.22;;;20.60;99.90;;;;;;10456667;28;20210;-87
2023/08/05 12:54:06;;;;;;;6.22;3.67;;;20.50;99.90;;;;;;10455518;28;20203;-87
2023/08/05 12:59:08;;;;;;;3.63;3.33;;;20.50;99.90;;;;;;10456180;28;20218;-87
2023/08/05 13:04:11;;;;;;;6.47;3.55;;;20.40;99.90;;;;;;10456279;28;20195;-87
2023/08/05 13:09:14;;;;;;;4.00;3.53;;;20.20;99.90;;;;;;10455858;28;20268;-88
2023/08/05 13:14:16;;;;;;;4.68;4.22;;;20.10;99.90;;;;;;10455774;28;20191;-88
2023/08/05 13:19:20;;;;;;;7.68;3.97;;;20.00;99.90;;;;;;10455551;28;20248;-88
2023/08/05 13:24:23;;;;;;;6.32;4.07;;;20.00;99.90;;;;;;10454368;28;20207;-88
2023/08/05 13:29:26;;;;;;;4.72;4.32;;;19.80;99.90;;;;;;10437022;28;20231;-88
2023/08/05 13:34:28;;;;;;;4.47;3.78;;;19.80;99.90;;;;;;10436690;28;20206;-88
2023/08/05 13:39:31;;;;;;;3.80;3.40;;;19.70;99.90;;;;;;10436702;28;20235;-88
2023/08/05 13:44:34;;;;;;;5.55;4.75;;;19.70;99.90;;;;;;10454757;28;20198;-88
2023/08/05 13:49:38;;;;;;;5.50;4.63;;;19.70;99.90;;;;;;10454506;28;20288;-88
2023/08/05 13:54:40;;;;;;;4.90;4.43;;;19.70;99.90;;;;;;10454337;28;20199;-87
2023/08/05 13:59:43;;;;;;;6.45;5.80;;;19.70;99.90;;;;;;10454312;28;20237;-87
2023/08/05 14:04:45;;;;;;;6.43;5.05;;;19.60;99.90;;;;;;10453761;28;20191;-87
2023/08/05 14:09:48;;;;;;;9.05;5.13;;;19.50;99.90;;;;;;10453258;28;20227;-88
2023/08/05 14:14:51;;;;;;;3.60;3.40;;;19.50;99.90;;;;;;10453305;28;20198;-87
2023/08/05 14:19:54;;;;;;;4.63;4.03;;;19.30;99.90;;;;;;10453596;28;20191;-88
2023/08/05 14:24:58;;;;;;;6.85;6.05;;;19.30;99.90;;;;;;10435852;28;20207;-87
2023/08/05 14:30:01;;;;;;;6.15;4.43;;;19.30;99.90;;;;;;10453648;28;20215;-87
2023/08/05 14:35:07;;;;;;;5.63;4.95;;;19.20;99.90;;;;;;10453086;28;20211;-88
2023/08/05 14:40:15;;;;;;;5.65;3.00;;;19.00;99.90;;;;;;10452905;28;20242;-87
2023/08/05 14:45:18;;;;;;;5.43;4.60;;;18.90;99.90;;;;;;10435383;28;20202;-87
2023/08/05 14:50:20;;;;;;;7.07;4.63;;;18.90;99.90;;;;;;10452985;28;20269;-88
2023/08/05 14:55:23;;;;;;;8.98;5.28;;;18.80;99.90;;;;;;10452482;28;20203;-87
2023/08/05 15:00:26;;;;;;;4.75;4.22;;;18.70;99.90;;;;;;10452762;28;20576;-87
2023/08/05 15:05:29;;;;;;;9.25;5.75;;;18.70;99.90;;;;;;10435586;28;20199;-87
2023/08/05 15:10:31;;;;;;;6.40;5.80;;;18.60;99.90;;;;;;10453154;28;20348;-88
2023/08/05 15:15:34;;;;;;;7.45;5.55;;;18.50;99.90;;;;;;10435095;28;20191;-87
2023/08/05 15:20:36;;;;;;;5.53;5.03;;;18.50;99.90;;;;;;10458300;28;20651;-87
2023/08/05 15:25:46;;;;;;;5.53;3.80;;;18.40;99.90;;;;;;10442415;28;20211;-87
2023/08/05 15:30:48;;;;;;;6.80;6.03;;;18.30;99.90;;;;;;10459686;28;20219;-88
2023/08/05 15:35:51;;;;;;;7.50;6.20;;;18.10;99.90;;;;;;10441657;28;20207;-87
2023/08/05 15:40:58;;;;;;;7.18;5.10;;;18.00;99.90;;;;;;10459087;28;20281;-88
2023/08/05 15:46:00;;;;;;;7.70;5.80;;;17.80;99.90;;;;;;10458578;28;20203;-88
2023/08/05 15:51:04;;;;;;;2.78;2.58;;;17.70;99.90;;;;;;10459495;28;20257;-88
2023/08/05 15:56:10;;;;;;;6.60;6.00;;;17.60;99.90;;;;;;10459390;28;20245;-87
2023/08/05 16:01:12;;;;;;;6.53;5.88;;;17.70;99.90;;;;;;10440077;28;20585;-87
2023/08/05 16:06:15;;;;;;;8.35;7.40;;;17.60;99.90;;;;;;10458347;28;20199;-87
2023/08/05 16:11:18;;;;;;;13.98;10.27;;;17.60;99.90;;;;;;10440073;28;20219;-87
2023/08/05 16:16:20;;;;;;;5.47;4.97;;;17.60;99.90;;;;;;10457333;28;20203;-87
2023/08/05 16:21:23;;;;;;;7.40;4.78;;;17.50;99.90;;;;;;10457383;28;20211;-88
2023/08/05 16:26:26;;;;;;;4.22;3.83;;;17.40;99.90;;;;;;10457449;28;20555;-87
2023/08/05 16:31:28;;;;;;;3.60;3.17;;;17.40;99.90;;;;;;10456322;28;20227;-87
2023/08/05 16:36:31;;;;;;;4.82;3.85;;;17.40;99.90;;;;;;10438895;28;20203;-87
2023/08/05 16:41:37;;;;;;;4.00;3.70;;;17.30;99.90;;;;;;10456517;28;20650;-87
2023/08/05 16:46:43;;;;;;;3.88;3.47;;;17.30;99.90;;;;;;10438431;28;20207;-87
2023/08/05 16:51:50;;;;;;;5.55;3.42;;;17.30;99.90;;;;;;10456612;28;20214;-87
2023/08/05 16:56:53;;;;;;;3.75;3.05;;;17.30;99.90;;;;;;10456124;28;20207;-87
2023/08/05 17:01:55;;;;;;;3.50;2.72;;;17.20;99.90;;;;;;10438614;28;20211;-88
2023/08/05 17:06:58;;;;;;;2.88;2.60;;;17.20;99.90;;;;;;10455644;28;20261;-88
2023/08/05 17:12:01;;;;;;;2.92;2.72;;;17.20;99.90;;;;;;10454786;28;20223;-88
2023/08/05 17:17:03;;;;;;;3.97;2.50;;;17.10;99.90;;;;;;10437784;28;20203;-87
2023/08/05 17:22:08;;;;;;;2.90;2.60;;;17.00;99.90;;;;;;10437139;28;20210;-87
2023/08/05 17:27:11;;;;;;;5.32;3.95;;;17.00;99.90;;;;;;10453367;28;20207;-88
2023/08/05 17:32:14;;;;;;;7.03;4.75;;;17.00;99.90;;;;;;10454606;28;20226;-87
2023/08/05 17:37:17;;;;;;;16.55;10.20;;;17.00;99.90;;;;;;10454672;28;20222;-88
2023/08/05 17:42:19;;;;;;;14.60;9.38;;;16.90;99.90;;;;;;10420480;28;20227;-88
2023/08/05 17:47:22;;;;;;;12.98;7.40;;;16.90;99.90;;;;;;10436694;28;20202;-88
2023/08/05 17:52:24;;;;;;;5.63;5.00;;;16.90;99.90;;;;;;10453727;28;20284;-87
2023/08/05 17:57:27;;;;;;;6.68;4.38;;;16.90;99.90;;;;;;10454268;28;20191;-87
2023/08/05 18:02:32;;;;;;;6.88;4.30;;;16.80;99.90;;;;;;10435640;28;20206;-87
2023/08/05 18:07:35;;;;;;;5.85;3.40;;;16.80;99.90;;;;;;10453475;28;20264;-87
2023/08/05 18:12:37;;;;;;;7.82;4.88;;;16.90;99.90;;;;;;10467532;28;20214;-88
2023/08/05 18:17:40;;;;;;;4.72;4.32;;;17.00;99.90;;;;;;10464162;28;20229;-87
2023/08/05 18:22:42;;;;;;;4.32;3.33;;;16.90;99.90;;;;;;10440745;28;20222;-87
2023/08/05 18:27:48;;;;;;;8.38;5.10;;;16.80;99.90;;;;;;10458613;28;20249;-87
2023/08/05 18:32:51;;;;;;;4.85;3.92;;;17.20;99.90;;;;;;10439715;28;20244;-87
2023/08/05 18:37:53;;;;;;;3.70;2.90;;;16.90;99.90;;;;;;10439787;28;20227;-88
2023/08/05 18:42:56;;;;;;;4.57;3.00;;;17.00;99.90;;;;;;10456119;28;20191;-88
2023/08/05 18:48:00;;;;;;;4.00;3.60;;;17.00;99.90;;;;;;10464701;28;20565;-87
2023/08/05 18:53:02;;;;;;;3.92;3.50;;;17.00;99.90;;;;;;10471322;28;20638;-87
2023/08/05 18:58:05;;;;;;;3.47;3.05;;;17.00;99.90;;;;;;10447257;28;20199;-87
2023/08/05 19:03:07;;;;;;;3.83;3.25;;;17.00;99.90;;;;;;10446053;28;20284;-87
2023/08/05 19:08:10;;;;;;;5.93;4.50;;;17.00;99.90;;;;;;10447051;28;20203;-87
2023/08/05 19:13:12;;;;;;;4.45;3.80;;;16.80;99.90;;;;;;10448727;28;20245;-88
2023/08/05 19:18:15;;;;;;;5.45;3.10;;;16.90;99.90;;;;;;10448627;28;20565;-87
2023/08/05 19:23:17;;;;;;;3.70;3.40;;;16.60;99.90;;;;;;10463008;28;20253;-88
2023/08/05 19:28:20;;;;;;;3.20;2.90;;;16.50;99.90;;;;;;10447079;28;20215;-87
2023/08/05 19:33:23;;;;;;;2.65;2.35;;;16.70;99.90;;;;;;10464044;28;20215;-87
2023/08/05 19:38:25;;;;;;;3.60;3.15;;;16.40;99.90;;;;;;10463785;28;20262;-87
2023/08/05 19:43:28;;;;;;;4.05;2.33;;;16.30;99.90;;;;;;10445826;28;20610;-88
2023/08/05 19:48:32;;;;;;;3.08;2.80;;;16.20;99.90;;;;;;10465865;28;20253;-88
2023/08/05 19:53:35;;;;;;;3.10;2.53;;;16.30;99.90;;;;;;10463581;28;20769;-88
2023/08/05 19:58:38;;;;;;;6.75;2.30;;;16.20;99.90;;;;;;10464729;28;20191;-88
2023/08/05 20:03:40;;;;;;;2.72;2.30;;;16.00;99.90;;;;;;10463273;28;20199;-88
2023/08/05 20:08:43;;;;;;;4.13;2.90;;;15.90;99.90;;;;;;10446472;28;20241;-88
2023/08/05 20:13:45;;;;;;;2.75;2.50;;;15.70;99.90;;;;;;10462573;28;20222;-88
2023/08/05 20:18:47;;;;;;;2.53;2.33;;;15.70;99.90;;;;;;10445028;28;20195;-88
2023/08/05 20:23:50;;;;;;;2.58;2.20;;;15.80;99.90;;;;;;10460797;28;20241;-88
2023/08/05 20:28:53;;;;;;;5.47;2.70;;;15.80;99.90;;;;;;10462860;28;20230;-88
2023/08/05 20:33:56;;;;;;;2.50;2.30;;;15.90;99.90;;;;;;10461508;28;20214;-87
2023/08/05 20:38:59;;;;;;;2.45;2.25;;;15.90;99.90;;;;;;10460670;28;20223;-88
2023/08/05 20:44:01;;;;;;;3.50;2.22;;;15.90;99.90;;;;;;10460411;28;20207;-87
2023/08/05 20:49:04;;;;;;;3.20;2.20;;;16.00;99.90;;;;;;10458356;28;20611;-88
2023/08/05 20:54:07;;;;;;;2.22;2.03;;;16.00;99.90;;;;;;10456398;28;20215;-88
2023/08/05 20:59:09;;;;;;;2.45;2.20;;;16.00;99.90;;;;;;10458100;28;20192;-87
2023/08/05 21:23:09;;;;;;;3.97;3.00;;;15.40;99.90;;;;;;6524152;23;20251;-85
2023/08/05 21:28:12;;;;;;;3.92;3.17;;;15.30;99.90;;;;;;10169840;29;20239;-86
2023/08/05 21:33:15;;;;;;;3.70;2.97;;;15.20;99.90;;;;;;10172218;29;20678;-85
2023/08/05 21:38:18;;;;;;;3.50;3.20;;;15.10;99.90;;;;;;10193846;29;20294;-85
2023/08/05 21:43:21;;;;;;;3.25;2.95;;;15.30;99.90;;;;;;10168411;29;20693;-84
2023/08/05 21:48:25;;;;;;;8.57;4.25;;;15.80;99.90;;;;;;10167973;29;20290;-88
2023/08/05 21:53:28;;;;;;;2.92;2.63;;;16.20;99.90;;;;;;10166825;29;20404;-87
2023/08/05 21:58:31;;;;;;;3.70;2.17;;;16.30;99.90;;;;;;10170334;29;20264;-87
2023/08/05 22:03:33;;;;;;;3.42;2.53;;;16.60;99.90;;;;;;10168672;29;20764;-85
2023/08/05 22:08:36;;;;;;;6.38;2.50;;;16.40;99.90;;;;;;10169732;29;20275;-86
2023/08/05 22:13:38;;;;;;;2.78;2.55;;;16.60;99.90;;;;;;10166892;29;20271;-84
2023/08/05 22:18:41;;;;;;;2.42;2.22;;;16.30;99.90;;;;;;10168120;29;20664;-87
2023/08/05 22:23:43;;;;;;;3.85;2.80;;;16.30;99.90;;;;;;10159278;29;20310;-86
2023/08/05 22:28:46;;;;;;;6.40;2.58;;;16.30;99.90;;;;;;10200267;29;20231;-84
2023/08/05 22:33:49;;;;;;;5.00;2.65;;;16.30;99.90;;;;;;10175242;29;20259;-84
2023/08/05 22:38:54;;;;;;;3.63;2.53;;;16.30;99.90;;;;;;10158253;29;20239;-85
2023/08/05 22:43:56;;;;;;;2.92;2.60;;;16.60;99.90;;;;;;10174849;29;20259;-85
2023/08/05 22:48:59;;;;;;;2.35;2.00;;;16.50;99.90;;;;;;10173786;29;20235;-85
2023/08/05 22:54:01;;;;;;;3.58;2.60;;;16.60;99.90;;;;;;10173740;29;20263;-84
2023/08/05 22:59:04;;;;;;;2.55;2.30;;;16.60;99.90;;;;;;10174135;29;20801;-84
2023/08/05 23:04:07;;;;;;;3.15;2.20;;;17.00;99.90;;;;;;10173692;29;20239;-84
2023/08/05 23:09:09;;;;;;;2.95;2.75;;;16.80;99.90;;;;;;10173498;29;20306;-84
2023/08/05 23:14:12;;;;;;;2.28;2.00;;;16.70;99.90;;;;;;10156817;29;20291;-84
2023/08/05 23:19:15;;;;;;;2.97;2.55;;;16.80;99.90;;;;;;10156707;29;20677;-84
2023/08/05 23:24:20;;;;;;;4.65;2.35;;;16.70;99.90;;;;;;10172745;29;20330;-86
2023/08/05 23:29:22;;;;;;;4.55;2.63;;;16.80;99.90;;;;;;10156449;29;20314;-85
2023/08/05 23:34:26;;;;;;;2.88;2.38;;;16.70;99.90;;;;;;10157018;29;20259;-85
2023/08/05 23:39:28;;;;;;;4.47;2.30;;;16.60;99.90;;;;;;10171860;29;20630;-85
2023/08/05 23:44:31;;;;;;;3.15;2.88;;;16.60;99.90;;;;;;10173067;29;20236;-85
2023/08/05 23:49:34;;;;;;;4.47;2.30;;;16.80;99.90;;;;;;10173178;29;20259;-85
2023/08/05 23:54:36;;;;;;;3.17;2.47;;;16.80;99.90;;;;;;10172629;29;20255;-85
2023/08/05 23:59:39;;;;;;;2.92;2.63;;;16.80;99.90;;;;;;10172714;29;20690;-85
